createdAt,value
2023-05-08T00:00:36.238Z,3.99
2023-05-08T00:01:36.312Z,4.48
2023-05-08T00:02:36.427Z,4.38
2023-05-08T00:03:36.561Z,4.05
2023-05-08T00:04:36.516Z,4.12
2023-05-08T00:05:36.537Z,4.63
2023-05-08T00:06:36.619Z,4.59
2023-05-08T00:07:36.694Z,4.39
2023-05-08T00:08:36.727Z,3.85
2023-05-08T00:09:36.801Z,3.76
2023-05-08T00:10:36.859Z,3.70
2023-05-08T00:11:36.922Z,3.79
2023-05-08T00:12:37.006Z,3.85
2023-05-08T00:13:37.026Z,4.12
2023-05-08T00:14:37.092Z,4.33
2023-05-08T00:15:37.141Z,4.03
2023-05-08T00:16:37.331Z,3.96
2023-05-08T00:17:37.313Z,3.87
2023-05-08T00:18:37.320Z,3.73
2023-05-08T00:19:37.393Z,3.75
2023-05-08T00:20:37.444Z,4.35
2023-05-08T00:21:37.500Z,4.60
2023-05-08T00:22:37.558Z,4.56
2023-05-08T00:23:37.628Z,4.34
2023-05-08T00:24:37.653Z,4.06
2023-05-08T00:25:37.720Z,4.10
2023-05-08T00:26:37.776Z,3.81
2023-05-08T00:27:37.839Z,3.85
2023-05-08T00:28:37.898Z,3.99
2023-05-08T00:29:37.963Z,4.40
2023-05-08T00:30:38.027Z,4.35
2023-05-08T00:31:38.230Z,4.25
2023-05-08T00:32:38.141Z,4.30
2023-05-08T00:33:38.232Z,4.49
2023-05-08T00:34:38.259Z,4.76
2023-05-08T00:35:38.323Z,4.75
2023-05-08T00:36:38.363Z,4.30
2023-05-08T00:37:38.389Z,4.42
2023-05-08T00:38:38.453Z,4.37
2023-05-08T00:39:38.496Z,4.31
2023-05-08T00:40:38.568Z,4.62
2023-05-08T00:41:38.621Z,4.34
2023-05-08T00:42:38.673Z,4.07
2023-05-08T00:43:38.715Z,4.36
2023-05-08T00:44:38.779Z,4.69
2023-05-08T00:45:38.820Z,4.04
2023-05-08T00:46:39.034Z,3.95
2023-05-08T00:47:39.008Z,3.81
2023-05-08T00:48:39.007Z,3.76
2023-05-08T00:49:39.055Z,3.99
2023-05-08T00:50:39.103Z,4.00
2023-05-08T00:51:39.135Z,4.17
2023-05-08T00:52:39.198Z,4.21
2023-05-08T00:53:39.218Z,4.32
2023-05-08T00:54:39.281Z,4.26
2023-05-08T00:55:39.341Z,4.00
2023-05-08T00:56:39.412Z,4.01
2023-05-08T00:57:39.469Z,4.24
2023-05-08T00:58:39.498Z,4.44
2023-05-08T00:59:39.536Z,4.52
2023-05-08T01:00:39.644Z,4.62
2023-05-08T01:01:39.673Z,4.68
2023-05-08T01:02:39.774Z,4.65
2023-05-08T01:03:39.874Z,4.44
2023-05-08T01:04:39.799Z,4.42
2023-05-08T01:05:39.844Z,4.47
2023-05-08T01:06:39.890Z,4.67
2023-05-08T01:07:39.928Z,4.41
2023-05-08T01:08:40.018Z,4.44
2023-05-08T01:09:40.068Z,4.49
2023-05-08T01:10:40.127Z,4.58
2023-05-08T01:11:40.170Z,4.67
2023-05-08T01:12:40.223Z,4.90
2023-05-08T01:13:40.272Z,4.74
2023-05-08T01:14:40.308Z,4.67
2023-05-08T01:15:40.379Z,4.61
2023-05-08T01:16:40.373Z,4.69
2023-05-08T01:17:40.449Z,4.62
2023-05-08T01:18:40.437Z,4.90
2023-05-08T01:19:40.477Z,5.10
2023-05-08T01:20:40.519Z,4.98
2023-05-08T01:21:40.553Z,5.00
2023-05-08T01:22:40.585Z,5.16
2023-05-08T01:23:40.612Z,5.22
2023-05-08T01:24:40.633Z,4.99
2023-05-08T01:25:40.668Z,5.10
2023-05-08T01:26:40.673Z,4.93
2023-05-08T01:27:40.733Z,4.94
2023-05-08T01:28:40.777Z,5.05
2023-05-08T01:29:40.835Z,5.08
2023-05-08T01:30:40.845Z,4.79
2023-05-08T01:31:40.862Z,4.98
2023-05-08T01:32:40.926Z,5.27
2023-05-08T01:33:40.955Z,5.02
2023-05-08T01:34:40.957Z,4.98
2023-05-08T01:35:40.994Z,5.05
2023-05-08T01:36:41.013Z,5.26
2023-05-08T01:37:41.049Z,5.09
2023-05-08T01:38:41.046Z,4.88
2023-05-08T01:39:41.078Z,5.07
2023-05-08T01:40:41.139Z,5.20
2023-05-08T01:41:41.172Z,5.52
2023-05-08T01:42:41.201Z,5.40
2023-05-08T01:43:41.263Z,5.44
2023-05-08T01:44:41.291Z,5.41
2023-05-08T01:45:41.319Z,5.29
2023-05-08T01:46:41.360Z,5.20
2023-05-08T01:47:41.436Z,4.97
2023-05-08T01:48:41.379Z,5.19
2023-05-08T01:49:41.422Z,5.41
2023-05-08T01:50:41.466Z,5.69
2023-05-08T01:51:41.516Z,5.40
2023-05-08T01:52:41.544Z,5.56
2023-05-08T01:53:41.597Z,5.31
2023-05-08T01:54:41.644Z,5.73
2023-05-08T01:55:41.694Z,5.78
2023-05-08T01:56:41.740Z,5.62
2023-05-08T01:57:41.746Z,5.50
2023-05-08T01:58:41.774Z,5.53
2023-05-08T01:59:41.771Z,5.66
2023-05-08T02:00:41.813Z,5.84
2023-05-08T02:01:41.784Z,5.73
2023-05-08T02:02:41.863Z,5.88
2023-05-08T02:03:41.831Z,5.96
2023-05-08T02:04:41.848Z,5.66
2023-05-08T02:05:41.861Z,5.66
2023-05-08T02:06:41.895Z,5.65
2023-05-08T02:07:41.908Z,5.52
2023-05-08T02:08:41.914Z,5.65
2023-05-08T02:09:41.917Z,5.75
2023-05-08T02:10:41.925Z,5.51
2023-05-08T02:11:41.938Z,5.76
2023-05-08T02:12:41.975Z,6.10
2023-05-08T02:13:41.968Z,6.04
2023-05-08T02:14:41.985Z,6.35
2023-05-08T02:15:41.961Z,6.19
2023-05-08T02:16:42.035Z,6.56
2023-05-08T02:17:42.051Z,6.76
2023-05-08T02:18:42.006Z,6.40
2023-05-08T02:19:42.027Z,6.58
2023-05-08T02:20:42.054Z,6.63
2023-05-08T02:21:42.064Z,6.84
2023-05-08T02:22:42.054Z,6.80
2023-05-08T02:23:42.055Z,7.03
2023-05-08T02:24:42.058Z,6.96
2023-05-08T02:25:42.097Z,7.28
2023-05-08T02:26:42.082Z,6.95
2023-05-08T02:27:42.082Z,7.11
2023-05-08T02:28:42.081Z,7.12
2023-05-08T02:29:42.089Z,7.08
2023-05-08T02:30:42.097Z,7.51
2023-05-08T02:31:42.176Z,7.68
2023-05-08T02:32:42.129Z,7.69
2023-05-08T02:33:42.097Z,7.46
2023-05-08T02:34:51.132Z,7.61
2023-05-08T02:35:43.104Z,7.62
2023-05-08T02:36:42.104Z,7.68
2023-05-08T02:37:42.104Z,7.78
2023-05-08T02:38:42.095Z,7.89
2023-05-08T02:39:42.089Z,8.32
2023-05-08T02:40:42.076Z,8.49
2023-05-08T02:41:42.084Z,8.17
2023-05-08T02:42:42.061Z,8.21
2023-05-08T02:43:42.076Z,8.06
2023-05-08T02:44:42.045Z,8.51
2023-05-08T02:45:42.033Z,8.74
2023-05-08T02:46:42.035Z,8.91
2023-05-08T02:47:42.085Z,8.74
2023-05-08T02:48:42.008Z,8.93
2023-05-08T02:49:42.017Z,8.62
2023-05-08T02:50:42.024Z,8.54
2023-05-08T02:51:41.993Z,8.79
2023-05-08T02:52:41.998Z,8.93
2023-05-08T02:53:41.983Z,8.66
2023-05-08T02:54:41.972Z,9.12
2023-05-08T02:55:41.972Z,9.01
2023-05-08T02:56:41.959Z,8.79
2023-05-08T02:57:42.062Z,8.79
2023-05-08T02:58:41.950Z,8.84
2023-05-08T02:59:41.931Z,9.20
2023-05-08T03:00:41.924Z,8.94
2023-05-08T03:01:41.982Z,9.04
2023-05-08T03:02:41.992Z,8.97
2023-05-08T03:03:42.015Z,8.73
2023-05-08T03:04:41.898Z,8.64
2023-05-08T03:05:41.898Z,8.74
2023-05-08T03:06:41.892Z,8.86
2023-05-08T03:07:41.887Z,8.98
2023-05-08T03:08:41.880Z,8.76
2023-05-08T03:09:41.895Z,8.12
2023-05-08T03:10:41.882Z,7.67
2023-05-08T03:11:41.898Z,7.83
2023-05-08T03:12:42.877Z,8.09
2023-05-08T03:13:41.896Z,8.03
2023-05-08T03:14:41.925Z,8.62
2023-05-08T03:15:41.993Z,8.57
2023-05-08T03:16:41.930Z,8.12
2023-05-08T03:17:41.967Z,7.37
2023-05-08T03:18:41.930Z,7.15
2023-05-08T03:19:41.940Z,7.54
2023-05-08T03:20:41.971Z,7.35
2023-05-08T03:21:41.981Z,7.57
2023-05-08T03:22:41.954Z,7.28
2023-05-08T03:23:41.938Z,7.84
2023-05-08T03:24:41.959Z,7.63
2023-05-08T03:25:41.935Z,7.17
2023-05-08T03:26:41.976Z,7.14
2023-05-08T03:27:41.953Z,7.55
2023-05-08T03:28:41.948Z,7.26
2023-05-08T03:29:41.966Z,6.75
2023-05-08T03:30:41.953Z,7.16
2023-05-08T03:31:42.019Z,7.11
2023-05-08T03:32:41.950Z,7.15
2023-05-08T03:33:41.931Z,7.66
2023-05-08T03:34:41.955Z,7.66
2023-05-08T03:35:41.952Z,7.39
2023-05-08T03:36:41.936Z,7.31
2023-05-08T03:37:41.961Z,7.21
2023-05-08T03:38:41.946Z,6.82
2023-05-08T03:39:41.965Z,7.18
2023-05-08T03:40:41.971Z,7.13
2023-05-08T03:41:41.967Z,6.51
2023-05-08T03:42:41.976Z,6.59
2023-05-08T03:43:41.969Z,6.51
2023-05-08T03:44:41.992Z,6.34
2023-05-08T03:45:42.075Z,6.17
2023-05-08T03:46:42.016Z,6.10
2023-05-08T03:47:42.535Z,6.13
2023-05-08T03:48:41.975Z,6.30
2023-05-08T03:49:41.977Z,6.30
2023-05-08T03:50:41.985Z,6.75
2023-05-08T03:51:42.005Z,6.13
2023-05-08T03:52:42.002Z,5.65
2023-05-08T03:53:42.002Z,6.05
2023-05-08T03:54:41.994Z,5.69
2023-05-08T03:55:42.016Z,5.33
2023-05-08T03:56:42.024Z,5.45
2023-05-08T03:57:42.031Z,5.48
2023-05-08T03:58:42.017Z,5.98
2023-05-08T03:59:42.019Z,6.27
2023-05-08T04:00:42.042Z,6.46
2023-05-08T04:01:42.089Z,6.28
2023-05-08T04:02:42.539Z,5.91
2023-05-08T04:03:42.172Z,6.12
2023-05-08T04:04:42.064Z,5.91
2023-05-08T04:05:42.073Z,6.01
2023-05-08T04:06:49.349Z,5.87
2023-05-08T04:07:43.067Z,5.73
2023-05-08T04:08:42.046Z,5.40
2023-05-08T04:09:42.047Z,5.30
2023-05-08T04:10:42.062Z,5.31
2023-05-08T04:11:42.042Z,5.47
2023-05-08T04:12:42.044Z,5.55
2023-05-08T04:13:42.003Z,5.77
2023-05-08T04:14:41.995Z,5.56
2023-05-08T04:15:42.008Z,5.45
2023-05-08T04:16:42.028Z,5.63
2023-05-08T04:17:42.039Z,5.53
2023-05-08T04:18:41.978Z,5.42
2023-05-08T04:19:41.977Z,5.13
2023-05-08T04:20:41.974Z,5.00
2023-05-08T04:21:41.965Z,5.55
2023-05-08T04:22:41.961Z,5.25
2023-05-08T04:23:41.954Z,5.79
2023-05-08T04:24:41.949Z,5.87
2023-05-08T04:25:41.941Z,5.95
2023-05-08T04:26:41.910Z,5.68
2023-05-08T04:27:41.914Z,5.43
2023-05-08T04:28:41.915Z,5.14
2023-05-08T04:29:41.905Z,5.36
2023-05-08T04:30:41.885Z,5.44
2023-05-08T04:31:41.910Z,5.47
2023-05-08T04:32:44.173Z,5.36
2023-05-08T04:33:41.873Z,5.26
2023-05-08T04:34:41.887Z,5.51
2023-05-08T04:35:41.894Z,5.30
2023-05-08T04:36:41.868Z,5.36
2023-05-08T04:37:41.860Z,5.34
2023-05-08T04:38:41.838Z,5.46
2023-05-08T04:39:43.661Z,5.05
2023-05-08T04:40:41.820Z,5.28
2023-05-08T04:41:41.851Z,4.82
2023-05-08T04:42:41.811Z,5.00
2023-05-08T04:43:41.821Z,5.00
2023-05-08T04:44:41.808Z,4.91
2023-05-08T04:45:41.821Z,4.95
2023-05-08T04:46:41.815Z,4.85
2023-05-08T04:47:41.805Z,4.95
2023-05-08T04:48:41.797Z,5.34
2023-05-08T04:49:41.833Z,5.46
2023-05-08T04:50:41.761Z,5.06
2023-05-08T04:51:41.764Z,5.16
2023-05-08T04:52:41.759Z,4.83
2023-05-08T04:53:41.747Z,4.95
2023-05-08T04:54:41.736Z,4.83
2023-05-08T04:55:41.744Z,5.37
2023-05-08T04:56:41.716Z,5.41
2023-05-08T04:57:41.730Z,5.33
2023-05-08T04:58:41.702Z,5.16
2023-05-08T04:59:41.712Z,5.17
2023-05-08T05:00:41.683Z,4.90
2023-05-08T05:01:41.745Z,4.60
2023-05-08T05:02:41.718Z,4.91
2023-05-08T05:03:41.725Z,5.12
2023-05-08T05:04:41.668Z,4.86
2023-05-08T05:05:41.667Z,4.72
2023-05-08T05:06:41.655Z,4.54
2023-05-08T05:07:41.635Z,4.53
2023-05-08T05:08:41.640Z,4.47
2023-05-08T05:09:41.628Z,4.34
2023-05-08T05:10:41.618Z,4.38
2023-05-08T05:11:41.631Z,4.40
2023-05-08T05:12:41.660Z,4.21
2023-05-08T05:13:41.631Z,4.09
2023-05-08T05:14:41.617Z,3.97
2023-05-08T05:15:41.669Z,3.93
2023-05-08T05:16:41.780Z,4.01
2023-05-08T05:17:41.788Z,4.67
2023-05-08T05:18:41.719Z,5.28
2023-05-08T05:19:41.705Z,5.63
2023-05-08T05:20:41.725Z,6.20
2023-05-08T05:21:41.726Z,6.96
2023-05-08T05:22:41.735Z,7.74
2023-05-08T05:23:41.735Z,7.77
2023-05-08T05:24:41.826Z,5.86
2023-05-08T05:25:41.729Z,5.09
2023-05-08T05:26:41.740Z,4.01
2023-05-08T05:27:41.769Z,3.71
2023-05-08T05:28:41.814Z,4.26
2023-05-08T05:29:41.805Z,4.15
2023-05-08T05:30:41.827Z,4.18
2023-05-08T05:31:41.891Z,4.52
2023-05-08T05:32:41.999Z,3.93
2023-05-08T05:33:41.943Z,3.80
2023-05-08T05:34:41.948Z,4.25
2023-05-08T05:35:41.957Z,4.85
2023-05-08T05:36:41.963Z,4.74
2023-05-08T05:37:41.960Z,5.34
2023-05-08T05:38:41.995Z,5.11
2023-05-08T05:39:42.005Z,5.25
2023-05-08T05:40:42.063Z,5.44
2023-05-08T05:41:42.038Z,5.44
2023-05-08T05:42:42.549Z,6.63
2023-05-08T05:43:42.079Z,8.13
2023-05-08T05:44:42.084Z,9.81
2023-05-08T05:45:42.083Z,10.98
2023-05-08T05:46:44.282Z,10.95
2023-05-08T05:47:42.249Z,10.87
2023-05-08T05:48:42.255Z,10.34
2023-05-08T05:49:42.353Z,9.99
2023-05-08T05:50:42.367Z,11.63
2023-05-08T05:51:42.419Z,13.77
2023-05-08T05:52:42.476Z,15.34
2023-05-08T05:53:42.535Z,15.32
2023-05-08T05:54:42.630Z,16.13
2023-05-08T05:55:42.648Z,17.08
2023-05-08T05:56:42.689Z,18.53
2023-05-08T05:57:42.704Z,16.84
2023-05-08T05:58:42.705Z,15.98
2023-05-08T05:59:42.745Z,17.85
2023-05-08T06:00:42.789Z,21.06
2023-05-08T06:01:42.816Z,20.19
2023-05-08T06:02:42.984Z,19.55
2023-05-08T06:03:42.910Z,22.28
2023-05-08T06:04:42.853Z,24.58
2023-05-08T06:05:42.878Z,19.74
2023-05-08T06:06:42.871Z,20.22
2023-05-08T06:07:42.918Z,20.44
2023-05-08T06:08:42.930Z,19.79
2023-05-08T06:09:42.988Z,18.29
2023-05-08T06:10:42.973Z,18.64
2023-05-08T06:11:42.982Z,18.09
2023-05-08T06:12:43.016Z,20.14
2023-05-08T06:13:43.004Z,22.16
2023-05-08T06:14:43.057Z,22.67
2023-05-08T06:15:43.091Z,22.24
2023-05-08T06:16:43.135Z,22.67
2023-05-08T06:17:43.143Z,24.88
2023-05-08T06:18:43.105Z,26.20
2023-05-08T06:19:43.211Z,29.32
2023-05-08T06:20:43.201Z,30.26
2023-05-08T06:21:43.221Z,28.89
2023-05-08T06:22:43.230Z,29.63
2023-05-08T06:23:43.275Z,31.10
2023-05-08T06:24:43.304Z,34.32
2023-05-08T06:25:43.336Z,39.86
2023-05-08T06:26:43.351Z,46.84
2023-05-08T06:27:43.398Z,54.69
2023-05-08T06:28:43.451Z,58.80
2023-05-08T06:29:43.561Z,58.20
2023-05-08T06:30:43.543Z,61.76
2023-05-08T06:31:43.528Z,62.74
2023-05-08T06:32:43.618Z,57.93
2023-05-08T06:33:43.614Z,48.72
2023-05-08T06:34:43.647Z,50.29
2023-05-08T06:35:44.072Z,44.18
2023-05-08T06:36:43.709Z,27.67
2023-05-08T06:37:43.733Z,22.94
2023-05-08T06:38:43.724Z,21.41
2023-05-08T06:39:43.765Z,19.67
2023-05-08T06:40:43.787Z,15.98
2023-05-08T06:41:43.754Z,15.01
2023-05-08T06:42:43.757Z,14.97
2023-05-08T06:43:43.748Z,15.11
2023-05-08T06:44:43.811Z,16.59
2023-05-08T06:45:43.772Z,14.40
2023-05-08T06:46:43.833Z,13.71
2023-05-08T06:47:43.847Z,13.41
2023-05-08T06:48:43.818Z,12.40
2023-05-08T06:49:43.827Z,12.50
2023-05-08T06:50:43.833Z,11.11
2023-05-08T06:51:43.874Z,9.64
2023-05-08T06:52:43.866Z,9.44
2023-05-08T06:53:43.888Z,9.16
2023-05-08T06:54:43.911Z,8.67
2023-05-08T06:55:43.937Z,8.46
2023-05-08T06:56:43.951Z,7.50
2023-05-08T06:57:43.991Z,7.51
2023-05-08T06:58:48.403Z,6.83
2023-05-08T06:59:45.020Z,5.92
2023-05-08T07:00:44.028Z,5.77
2023-05-08T07:01:44.019Z,5.60
2023-05-08T07:02:44.048Z,5.35
2023-05-08T07:03:43.994Z,5.11
2023-05-08T07:04:44.046Z,5.40
2023-05-08T07:05:43.993Z,5.53
2023-05-08T07:06:43.987Z,5.58
2023-05-08T07:07:43.971Z,5.19
2023-05-08T07:08:43.987Z,5.22
2023-05-08T07:09:43.964Z,4.98
2023-05-08T07:10:43.953Z,4.47
2023-05-08T07:11:43.942Z,4.53
2023-05-08T07:12:44.092Z,4.36
2023-05-08T07:13:43.945Z,4.88
2023-05-08T07:14:43.957Z,4.83
2023-05-08T07:15:44.032Z,4.76
2023-05-08T07:16:43.960Z,4.42
2023-05-08T07:17:43.979Z,4.64
2023-05-08T07:18:44.019Z,5.12
2023-05-08T07:19:43.982Z,5.10
2023-05-08T07:20:44.012Z,5.24
2023-05-08T07:21:44.036Z,5.67
2023-05-08T07:22:44.030Z,5.16
2023-05-08T07:23:44.027Z,5.51
2023-05-08T07:24:44.036Z,5.16
2023-05-08T07:25:44.041Z,5.18
2023-05-08T07:26:44.042Z,5.39
2023-05-08T07:27:44.066Z,6.02
2023-05-08T07:28:44.104Z,7.31
2023-05-08T07:29:44.095Z,13.49
2023-05-08T07:30:44.096Z,20.98
2023-05-08T07:31:44.153Z,24.10
2023-05-08T07:32:44.157Z,28.37
2023-05-08T07:33:44.213Z,35.52
2023-05-08T07:34:44.270Z,54.96
2023-05-08T07:35:44.299Z,47.86
2023-05-08T07:36:44.351Z,51.82
2023-05-08T07:37:44.376Z,61.91
2023-05-08T07:38:44.407Z,82.75
2023-05-08T07:39:44.421Z,78.78
2023-05-08T07:40:44.592Z,95.56
2023-05-08T07:41:44.450Z,96.13
2023-05-08T07:42:44.596Z,104.36
2023-05-08T07:43:44.483Z,122.75
2023-05-08T07:44:54.302Z,120.13
2023-05-08T07:45:45.641Z,120.80
2023-05-08T07:46:44.583Z,79.30
2023-05-08T07:47:44.678Z,45.02
2023-05-08T07:48:44.429Z,37.89
2023-05-08T07:49:44.442Z,69.36
2023-05-08T07:50:44.448Z,75.19
2023-05-08T07:51:44.425Z,65.30
2023-05-08T07:52:44.593Z,68.99
2023-05-08T07:53:44.401Z,74.35
2023-05-08T07:54:44.380Z,85.09
2023-05-08T07:55:44.379Z,83.04
2023-05-08T07:56:44.470Z,89.90
2023-05-08T07:57:44.388Z,97.96
2023-05-08T07:58:44.355Z,95.77
2023-05-08T07:59:44.365Z,100.99
2023-05-08T08:00:44.375Z,107.31
2023-05-08T08:01:44.424Z,111.67
2023-05-08T08:02:44.536Z,117.80
2023-05-08T08:03:44.402Z,120.18
2023-05-08T08:04:44.328Z,119.01
2023-05-08T08:05:44.624Z,113.19
2023-05-08T08:06:44.386Z,112.48
2023-05-08T08:07:44.598Z,109.80
2023-05-08T08:08:44.509Z,110.90
2023-05-08T08:09:44.553Z,111.86
2023-05-08T08:10:44.656Z,112.65
2023-05-08T08:11:44.672Z,115.03
2023-05-08T08:12:45.148Z,118.44
2023-05-08T08:13:44.782Z,116.46
2023-05-08T08:14:44.816Z,117.49
2023-05-08T08:15:44.898Z,115.22
2023-05-08T08:16:44.947Z,114.34
2023-05-08T08:17:45.250Z,113.25
2023-05-08T08:18:45.008Z,108.38
2023-05-08T08:19:45.073Z,105.16
2023-05-08T08:20:45.120Z,94.86
2023-05-08T08:21:45.167Z,93.98
2023-05-08T08:22:45.200Z,90.38
2023-05-08T08:23:45.244Z,85.39
2023-05-08T08:24:45.293Z,89.47
2023-05-08T08:25:45.599Z,77.76
2023-05-08T08:26:45.366Z,87.43
2023-05-08T08:27:45.394Z,94.65
2023-05-08T08:28:45.440Z,94.64
2023-05-08T08:29:45.477Z,91.88
2023-05-08T08:30:45.568Z,88.15
2023-05-08T08:31:45.573Z,87.39
2023-05-08T08:32:45.663Z,86.42
2023-05-08T08:33:45.745Z,43.92
2023-05-08T08:34:45.702Z,23.89
2023-05-08T08:35:45.738Z,16.04
2023-05-08T08:36:45.728Z,12.82
2023-05-08T08:37:46.123Z,12.72
2023-05-08T08:38:45.773Z,15.02
2023-05-08T08:39:45.875Z,16.22
2023-05-08T08:40:45.822Z,19.52
2023-05-08T08:41:45.822Z,24.35
2023-05-08T08:42:46.123Z,27.30
2023-05-08T08:43:45.884Z,28.46
2023-05-08T08:44:45.875Z,31.17
2023-05-08T08:45:45.897Z,33.81
2023-05-08T08:46:45.928Z,40.48
2023-05-08T08:47:45.956Z,44.66
2023-05-08T08:48:45.921Z,48.80
2023-05-08T08:49:46.140Z,52.05
2023-05-08T08:50:46.036Z,51.63
2023-05-08T08:51:46.094Z,53.30
2023-05-08T08:52:46.145Z,54.16
2023-05-08T08:53:46.213Z,59.59
2023-05-08T08:54:46.266Z,57.66
2023-05-08T08:55:46.297Z,58.39
2023-05-08T08:56:46.341Z,61.20
2023-05-08T08:57:46.361Z,57.16
2023-05-08T08:58:46.419Z,57.01
2023-05-08T08:59:46.458Z,58.41
2023-05-08T09:00:46.506Z,61.06
2023-05-08T09:01:46.524Z,63.44
2023-05-08T09:02:46.601Z,64.19
2023-05-08T09:03:48.365Z,63.87
2023-05-08T09:04:46.563Z,66.45
2023-05-08T09:05:46.697Z,66.72
2023-05-08T09:06:46.550Z,60.07
2023-05-08T09:07:46.630Z,60.51
2023-05-08T09:08:46.554Z,56.86
2023-05-08T09:09:46.515Z,58.80
2023-05-08T09:10:46.518Z,62.02
2023-05-08T09:11:46.523Z,53.24
2023-05-08T09:12:46.673Z,57.65
2023-05-08T09:13:46.489Z,58.71
2023-05-08T09:14:46.480Z,61.27
2023-05-08T09:15:46.480Z,60.03
2023-05-08T09:16:46.493Z,62.41
2023-05-08T09:17:46.474Z,62.56
2023-05-08T09:18:46.558Z,64.18
2023-05-08T09:19:46.443Z,62.89
2023-05-08T09:20:46.450Z,62.93
2023-05-08T09:21:46.526Z,65.28
2023-05-08T09:22:46.415Z,65.82
2023-05-08T09:23:46.630Z,61.87
2023-05-08T09:24:46.415Z,63.61
2023-05-08T09:25:46.449Z,60.61
2023-05-08T09:26:46.416Z,52.44
2023-05-08T09:27:46.430Z,52.51
2023-05-08T09:28:46.621Z,52.49
2023-05-08T09:29:46.390Z,50.66
2023-05-08T09:30:46.386Z,47.50
2023-05-08T09:31:46.515Z,48.64
2023-05-08T09:32:46.585Z,53.92
2023-05-08T09:33:46.627Z,55.88
2023-05-08T09:34:46.356Z,54.81
2023-05-08T09:35:46.342Z,57.73
2023-05-08T09:36:46.345Z,59.93
2023-05-08T09:37:46.330Z,61.03
2023-05-08T09:38:46.634Z,61.46
2023-05-08T09:39:46.326Z,63.99
2023-05-08T09:40:47.140Z,66.56
2023-05-08T09:41:46.309Z,67.21
2023-05-08T09:42:46.286Z,66.08
2023-05-08T09:43:46.301Z,63.97
2023-05-08T09:44:46.300Z,63.22
2023-05-08T09:45:46.321Z,65.51
2023-05-08T09:46:46.266Z,57.83
2023-05-08T09:47:46.309Z,48.62
2023-05-08T09:48:46.265Z,53.58
2023-05-08T09:49:46.265Z,55.54
2023-05-08T09:50:46.262Z,57.03
2023-05-08T09:51:46.260Z,56.08
2023-05-08T09:52:46.221Z,58.19
2023-05-08T09:53:46.311Z,57.25
2023-05-08T09:54:46.223Z,56.39
2023-05-08T09:55:46.212Z,58.25
2023-05-08T09:56:46.196Z,57.96
2023-05-08T09:57:46.184Z,56.71
2023-05-08T09:58:46.202Z,55.03
2023-05-08T09:59:46.168Z,56.04
2023-05-08T10:00:46.249Z,57.09
2023-05-08T10:01:46.153Z,59.01
2023-05-08T10:02:46.175Z,59.98
2023-05-08T10:03:46.659Z,29.51
2023-05-08T10:04:46.180Z,14.85
2023-05-08T10:05:46.161Z,9.82
2023-05-08T10:06:46.635Z,5.67
2023-05-08T10:07:46.134Z,4.56
2023-05-08T10:08:46.128Z,3.93
2023-05-08T10:09:50.674Z,3.30
2023-05-08T10:10:46.098Z,3.12
2023-05-08T10:11:46.089Z,2.81
2023-05-08T10:12:46.104Z,2.62
2023-05-08T10:13:46.076Z,2.61
2023-05-08T10:14:46.996Z,2.27
2023-05-08T10:15:46.059Z,2.30
2023-05-08T10:16:46.092Z,2.53
2023-05-08T10:17:46.102Z,2.81
2023-05-08T10:18:46.039Z,3.25
2023-05-08T10:19:46.084Z,3.97
2023-05-08T10:20:46.032Z,4.32
2023-05-08T10:21:46.031Z,5.68
2023-05-08T10:22:46.032Z,6.62
2023-05-08T10:23:46.072Z,8.06
2023-05-08T10:24:46.024Z,9.46
2023-05-08T10:25:46.110Z,9.75
2023-05-08T10:26:57.200Z,11.67
2023-05-08T10:27:46.991Z,11.71
2023-05-08T10:28:46.145Z,12.17
2023-05-08T10:29:45.964Z,13.25
2023-05-08T10:30:45.981Z,15.06
2023-05-08T10:31:46.009Z,19.82
2023-05-08T10:32:45.966Z,23.21
2023-05-08T10:33:45.953Z,23.41
2023-05-08T10:34:45.990Z,24.88
2023-05-08T10:35:45.927Z,24.94
2023-05-08T10:36:45.919Z,26.24
2023-05-08T10:37:45.931Z,27.52
2023-05-08T10:38:45.906Z,27.76
2023-05-08T10:39:45.908Z,23.96
2023-05-08T10:40:45.902Z,25.45
2023-05-08T10:41:46.016Z,26.99
2023-05-08T10:42:45.949Z,28.87
2023-05-08T10:43:45.942Z,29.93
2023-05-08T10:44:45.962Z,30.67
2023-05-08T10:45:45.958Z,31.49
2023-05-08T10:46:46.135Z,33.16
2023-05-08T10:47:46.111Z,32.21
2023-05-08T10:48:45.965Z,32.75
2023-05-08T10:49:45.986Z,32.11
2023-05-08T10:50:46.054Z,31.10
2023-05-08T10:51:45.975Z,31.83
2023-05-08T10:52:45.975Z,32.04
2023-05-08T10:53:45.984Z,31.27
2023-05-08T10:54:45.970Z,31.73
2023-05-08T10:55:46.048Z,31.45
2023-05-08T10:56:46.102Z,30.88
2023-05-08T10:57:46.104Z,31.08
2023-05-08T10:58:46.166Z,30.99
2023-05-08T10:59:46.216Z,29.51
2023-05-08T11:00:46.296Z,29.91
2023-05-08T11:01:46.334Z,29.84
2023-05-08T11:02:46.447Z,30.49
2023-05-08T11:03:46.669Z,29.21
2023-05-08T11:04:46.577Z,29.37
2023-05-08T11:05:46.586Z,30.46
2023-05-08T11:06:46.629Z,29.10
2023-05-08T11:07:46.657Z,28.28
2023-05-08T11:08:46.736Z,27.93
2023-05-08T11:09:46.780Z,28.43
2023-05-08T11:10:46.841Z,28.19
2023-05-08T11:11:46.862Z,28.12
2023-05-08T11:12:46.942Z,27.78
2023-05-08T11:13:46.981Z,26.80
2023-05-08T11:14:47.018Z,20.43
2023-05-08T11:15:47.111Z,13.71
2023-05-08T11:16:47.208Z,10.53
2023-05-08T11:17:47.207Z,8.12
2023-05-08T11:18:49.697Z,6.40
2023-05-08T11:19:47.201Z,5.47
2023-05-08T11:20:47.245Z,4.89
2023-05-08T11:21:47.664Z,5.73
2023-05-08T11:22:47.274Z,6.42
2023-05-08T11:23:47.196Z,8.10
2023-05-08T11:24:47.171Z,9.97
2023-05-08T11:25:47.179Z,11.18
2023-05-08T11:26:47.171Z,10.49
2023-05-08T11:27:47.151Z,9.61
2023-05-08T11:28:47.154Z,10.97
2023-05-08T11:29:47.304Z,10.77
2023-05-08T11:30:47.133Z,10.79
2023-05-08T11:31:47.151Z,11.35
2023-05-08T11:32:47.139Z,11.91
2023-05-08T11:33:47.189Z,11.96
2023-05-08T11:34:47.117Z,12.57
2023-05-08T11:35:47.093Z,13.27
2023-05-08T11:36:47.100Z,14.49
2023-05-08T11:37:47.094Z,10.57
2023-05-08T11:38:47.080Z,5.43
2023-05-08T11:39:47.078Z,3.11
2023-05-08T11:40:47.080Z,2.32
2023-05-08T11:41:47.057Z,2.55
2023-05-08T11:42:47.052Z,3.05
2023-05-08T11:43:47.056Z,3.58
2023-05-08T11:44:47.055Z,4.22
2023-05-08T11:45:47.035Z,5.63
2023-05-08T11:46:47.048Z,5.97
2023-05-08T11:47:47.065Z,6.71
2023-05-08T11:48:47.016Z,7.45
2023-05-08T11:49:47.004Z,7.67
2023-05-08T11:50:47.036Z,8.55
2023-05-08T11:51:46.990Z,8.34
2023-05-08T11:52:47.010Z,8.69
2023-05-08T11:53:46.985Z,8.69
2023-05-08T11:54:47.013Z,9.96
2023-05-08T11:55:46.977Z,11.84
2023-05-08T11:56:47.805Z,12.65
2023-05-08T11:57:46.966Z,13.34
2023-05-08T11:58:46.937Z,14.01
2023-05-08T11:59:46.951Z,14.63
2023-05-08T12:00:47.005Z,14.54
2023-05-08T12:01:59.896Z,15.80
2023-05-08T12:02:47.969Z,15.89
2023-05-08T12:03:47.024Z,16.23
2023-05-08T12:04:47.183Z,16.73
2023-05-08T12:05:46.897Z,16.97
2023-05-08T12:06:46.903Z,17.06
2023-05-08T12:07:47.070Z,17.01
2023-05-08T12:08:46.869Z,16.99
2023-05-08T12:09:46.889Z,16.00
2023-05-08T12:10:47.054Z,16.26
2023-05-08T12:11:46.870Z,15.49
2023-05-08T12:12:46.888Z,16.06
2023-05-08T12:13:46.852Z,14.45
2023-05-08T12:14:46.839Z,14.42
2023-05-08T12:15:46.828Z,14.35
2023-05-08T12:16:46.854Z,12.77
2023-05-08T12:17:46.937Z,12.19
2023-05-08T12:18:46.811Z,13.46
2023-05-08T12:19:46.815Z,13.78
2023-05-08T12:20:46.809Z,13.47
2023-05-08T12:21:46.813Z,13.77
2023-05-08T12:22:46.792Z,14.75
2023-05-08T12:23:46.787Z,15.53
2023-05-08T12:24:46.765Z,15.62
2023-05-08T12:25:46.757Z,14.29
2023-05-08T12:26:46.761Z,14.34
2023-05-08T12:27:46.764Z,15.25
2023-05-08T12:28:46.733Z,13.98
2023-05-08T12:29:46.754Z,14.37
2023-05-08T12:30:46.773Z,14.60
2023-05-08T12:31:46.777Z,15.00
2023-05-08T12:32:46.733Z,14.65
2023-05-08T12:33:46.722Z,14.52
2023-05-08T12:34:46.726Z,15.45
2023-05-08T12:35:46.774Z,14.86
2023-05-08T12:36:46.766Z,14.01
2023-05-08T12:37:46.811Z,14.24
2023-05-08T12:38:46.822Z,14.12
2023-05-08T12:39:46.863Z,13.75
2023-05-08T12:40:46.905Z,14.30
2023-05-08T12:41:46.935Z,14.03
2023-05-08T12:42:46.970Z,13.30
2023-05-08T12:43:47.002Z,13.37
2023-05-08T12:44:47.044Z,12.99
2023-05-08T12:45:47.080Z,13.54
2023-05-08T12:46:47.152Z,13.90
2023-05-08T12:47:47.242Z,13.81
2023-05-08T12:48:47.201Z,13.43
2023-05-08T12:49:47.300Z,12.43
2023-05-08T12:50:47.271Z,11.90
2023-05-08T12:51:47.308Z,12.06
2023-05-08T12:52:48.435Z,11.94
2023-05-08T12:53:47.386Z,11.99
2023-05-08T12:54:47.435Z,12.26
2023-05-08T12:55:47.451Z,12.08
2023-05-08T12:56:47.488Z,12.18
2023-05-08T12:57:47.540Z,12.19
2023-05-08T12:58:47.572Z,11.70
2023-05-08T12:59:47.594Z,10.66
2023-05-08T13:00:47.651Z,11.28
2023-05-08T13:01:47.780Z,10.89
2023-05-08T13:02:49.724Z,11.19
2023-05-08T13:03:56.020Z,11.39
2023-05-08T13:04:48.846Z,11.41
2023-05-08T13:05:47.857Z,11.23